createdAt,value
2022-08-29T00:00:23.072Z,99639.47
2022-08-29T00:02:52.481Z,99645.63
2022-08-29T00:05:24.980Z,99633.16
2022-08-29T00:07:52.078Z,99633.88
2022-08-29T00:10:18.903Z,99628.66
2022-08-29T00:12:45.439Z,99623.84
2022-08-29T00:15:12.992Z,99630.69
2022-08-29T00:17:39.527Z,99633.28
2022-08-29T00:20:08.048Z,99641.53
2022-08-29T00:22:34.682Z,99642.72
2022-08-29T00:25:04.698Z,99631.41
2022-08-29T00:27:33.074Z,99634.13
2022-08-29T00:29:59.653Z,99630.03
2022-08-29T00:32:26.209Z,99621.38
2022-08-29T00:34:52.849Z,99628.44
2022-08-29T00:37:19.904Z,99627.66
2022-08-29T00:39:46.411Z,99622.72
2022-08-29T00:42:13.309Z,99624.38
2022-08-29T00:44:39.858Z,99622.34
2022-08-29T00:47:09.751Z,99625.84
2022-08-29T00:49:42.167Z,99619.84
2022-08-29T00:52:14.573Z,99622.34
2022-08-29T00:54:43.902Z,99617.75
2022-08-29T00:57:10.831Z,99613.66
2022-08-29T00:59:39.169Z,99613.03
2022-08-29T01:02:07.357Z,99616.94
2022-08-29T01:04:34.728Z,99608.66
2022-08-29T01:07:01.316Z,99605.31
2022-08-29T01:09:28.261Z,99613.59
2022-08-29T01:12:14.953Z,99610.16
2022-08-29T01:14:48.034Z,99612.28
2022-08-29T01:17:21.583Z,99621.28
2022-08-29T01:20:07.301Z,99617.53
2022-08-29T01:23:01.070Z,99614.03
2022-08-29T01:25:31.410Z,99615.38
2022-08-29T01:28:13.801Z,99615.22
2022-08-29T01:31:06.778Z,99615.84
2022-08-29T01:33:56.874Z,99614.13
2022-08-29T01:36:27.383Z,99617.78
2022-08-29T01:38:54.541Z,99621.00
2022-08-29T01:41:22.790Z,99612.59
2022-08-29T01:43:52.292Z,99608.00
2022-08-29T01:46:25.622Z,99608.00
2022-08-29T01:48:52.507Z,99616.94
2022-08-29T01:51:19.839Z,99609.13
2022-08-29T01:53:46.534Z,99613.91
2022-08-29T01:56:18.571Z,99617.81
2022-08-29T01:58:46.298Z,99624.69
2022-08-29T02:01:15.229Z,99624.53
2022-08-29T02:03:42.061Z,99620.00
2022-08-29T02:06:11.741Z,99631.44
2022-08-29T02:08:39.634Z,99625.69
2022-08-29T02:11:11.456Z,99623.38
2022-08-29T02:13:59.609Z,99625.88
2022-08-29T02:16:27.747Z,99624.22
2022-08-29T02:18:54.869Z,99626.50
2022-08-29T02:21:23.428Z,99626.28
2022-08-29T02:23:50.693Z,99634.97
2022-08-29T02:26:18.688Z,99631.69
2022-08-29T02:28:46.242Z,99629.00
2022-08-29T02:31:13.322Z,99635.06
2022-08-29T02:33:40.369Z,99636.34
2022-08-29T02:36:07.769Z,99644.28
2022-08-29T02:38:34.994Z,99644.69
2022-08-29T02:41:01.796Z,99646.97
2022-08-29T02:43:28.403Z,99646.44
2022-08-29T02:45:55.042Z,99650.97
2022-08-29T02:48:21.576Z,99652.84
2022-08-29T02:50:50.431Z,99657.38
2022-08-29T02:53:18.940Z,99653.47
2022-08-29T02:55:47.355Z,99655.56
2022-08-29T02:58:14.525Z,99653.91
2022-08-29T03:00:42.374Z,99653.28
2022-08-29T03:03:08.997Z,99657.88
2022-08-29T03:05:37.211Z,99654.31
2022-08-29T03:08:07.131Z,99651.88
2022-08-29T03:10:34.413Z,99655.56
2022-08-29T03:13:01.340Z,99655.72
2022-08-29T03:15:27.884Z,99659.25
2022-08-29T03:17:54.746Z,99658.41
2022-08-29T03:20:24.028Z,99656.97
2022-08-29T03:22:51.903Z,99658.22
2022-08-29T03:25:18.433Z,99665.88
2022-08-29T03:27:45.071Z,99657.22
2022-08-29T03:30:13.685Z,99661.34
2022-08-29T03:32:40.598Z,99665.88
2022-08-29T03:35:09.437Z,99663.59
2022-08-29T03:37:35.931Z,99668.38
2022-08-29T03:40:05.290Z,99669.44
2022-08-29T03:42:31.963Z,99676.19
2022-08-29T03:44:58.594Z,99676.63
2022-08-29T03:47:25.133Z,99683.06
2022-08-29T03:49:51.630Z,99686.53
2022-08-29T03:52:18.107Z,99683.25
2022-08-29T03:54:44.548Z,99684.50
2022-08-29T03:57:12.108Z,99691.94
2022-08-29T03:59:38.605Z,99687.97
2022-08-29T04:02:05.378Z,99686.19
2022-08-29T04:04:50.299Z,99696.72
2022-08-29T04:07:17.667Z,99692.34
2022-08-29T04:09:44.332Z,99698.63
2022-08-29T04:12:12.349Z,99697.81
2022-08-29T04:14:39.593Z,99698.19
2022-08-29T04:17:06.827Z,99703.13
2022-08-29T04:19:35.213Z,99706.56
2022-08-29T04:22:02.495Z,99707.38
2022-08-29T04:24:33.598Z,99707.38
2022-08-29T04:27:00.461Z,99714.41
2022-08-29T04:29:27.626Z,99719.13
2022-08-29T04:31:54.196Z,99709.63
2022-08-29T04:34:21.368Z,99718.75
2022-08-29T04:36:48.254Z,99722.50
2022-08-29T04:39:15.213Z,99726.03
2022-08-29T04:41:42.221Z,99721.47
2022-08-29T04:44:11.175Z,99722.72
2022-08-29T04:46:38.361Z,99729.38
2022-08-29T04:49:05.317Z,99724.41
2022-08-29T04:51:34.224Z,99726.50
2022-08-29T04:54:00.916Z,99731.47
2022-08-29T04:56:27.637Z,99735.88
2022-08-29T04:58:57.088Z,99734.00
2022-08-29T05:01:26.101Z,99729.84
2022-08-29T05:03:54.505Z,99738.97
2022-08-29T05:06:22.893Z,99743.34
2022-08-29T05:08:58.794Z,99743.53
2022-08-29T05:11:28.814Z,99741.28
2022-08-29T05:13:55.578Z,99742.56
2022-08-29T05:16:22.214Z,99742.34
2022-08-29T05:18:49.260Z,99760.16
2022-08-29T05:21:35.589Z,99756.22
2022-08-29T05:24:07.550Z,99753.78
2022-08-29T05:26:37.785Z,99747.13
2022-08-29T05:29:08.718Z,99752.94
2022-08-29T05:31:37.474Z,99757.28
2022-08-29T05:34:21.887Z,99759.13
2022-08-29T05:36:51.977Z,99758.91
2022-08-29T05:39:18.507Z,99760.16
2022-08-29T05:41:44.996Z,99761.00
2022-08-29T05:44:11.561Z,99765.13
2022-08-29T05:46:38.187Z,99763.28
2022-08-29T05:49:05.855Z,99768.03
2022-08-29T05:51:37.296Z,99775.50
2022-08-29T05:54:06.016Z,99776.34
2022-08-29T05:56:32.818Z,99772.59
2022-08-29T05:58:59.519Z,99775.50
2022-08-29T06:01:29.386Z,99775.84
2022-08-29T06:04:00.151Z,99773.53
2022-08-29T06:06:28.787Z,99779.97
2022-08-29T06:08:56.958Z,99773.75
2022-08-29T06:11:29.655Z,99791.19
2022-08-29T06:13:57.259Z,99793.25
2022-08-29T06:16:25.234Z,99782.94
2022-08-29T06:18:52.237Z,99791.59
2022-08-29T06:21:19.739Z,99784.28
2022-08-29T06:23:46.785Z,99795.56
2022-08-29T06:26:14.170Z,99801.25
2022-08-29T06:28:45.842Z,99799.41
2022-08-29T06:31:29.436Z,99805.78
2022-08-29T06:34:01.065Z,99802.25
2022-08-29T06:36:28.808Z,99807.84
2022-08-29T06:38:57.772Z,99807.84
2022-08-29T06:41:25.470Z,99810.41
2022-08-29T06:43:52.203Z,99818.47
2022-08-29T06:46:22.636Z,99821.56
2022-08-29T06:48:50.117Z,99825.47
2022-08-29T06:51:16.990Z,99831.63
2022-08-29T06:53:43.665Z,99833.47
2022-08-29T06:56:11.152Z,99830.75
2022-08-29T06:58:38.249Z,99835.34
2022-08-29T07:01:09.678Z,99836.94
2022-08-29T07:03:36.204Z,99841.31
2022-08-29T07:06:03.320Z,99838.19
2022-08-29T07:08:30.236Z,99842.53
2022-08-29T07:10:57.657Z,99842.28
2022-08-29T07:13:24.641Z,99849.75
2022-08-29T07:15:52.376Z,99852.03
2022-08-29T07:18:19.028Z,99852.31
2022-08-29T07:20:45.696Z,99858.22
2022-08-29T07:23:12.474Z,99864.69
2022-08-29T07:25:39.168Z,99859.44
2022-08-29T07:28:06.560Z,99866.94
2022-08-29T07:30:34.864Z,99864.84
2022-08-29T07:33:01.653Z,99873.59
2022-08-29T07:35:31.229Z,99870.75
2022-08-29T07:38:01.455Z,99884.94
2022-08-29T07:40:28.670Z,99867.69
2022-08-29T07:42:55.699Z,99886.38
2022-08-29T07:45:22.317Z,99885.16
2022-08-29T07:47:48.916Z,99895.50
2022-08-29T07:50:15.632Z,99892.28
2022-08-29T07:52:42.357Z,99898.31
2022-08-29T07:55:10.244Z,99900.63
2022-08-29T07:57:39.759Z,99899.09
2022-08-29T08:00:10.734Z,99897.47
2022-08-29T08:02:37.532Z,99904.00
2022-08-29T08:05:06.828Z,99899.66
2022-08-29T08:07:35.228Z,99901.50
2022-08-29T08:10:03.158Z,99906.97
2022-08-29T08:12:29.949Z,99908.59
2022-08-29T08:14:57.751Z,99912.38
2022-08-29T08:17:24.732Z,99914.47
2022-08-29T08:19:51.252Z,99916.56
2022-08-29T08:22:17.781Z,99915.78
2022-08-29T08:24:45.157Z,99922.88
2022-08-29T08:27:11.908Z,99920.16
2022-08-29T08:29:38.620Z,99923.84
2022-08-29T08:32:05.705Z,99927.75
2022-08-29T08:34:35.871Z,99929.34
2022-08-29T08:37:08.265Z,99929.78
2022-08-29T08:39:35.675Z,99924.38
2022-08-29T08:42:07.117Z,99933.75
2022-08-29T08:44:54.001Z,99932.72
2022-08-29T08:47:26.353Z,99934.69
2022-08-29T08:50:21.642Z,99937.50
2022-08-29T08:53:05.494Z,99931.56
2022-08-29T08:55:40.052Z,99938.00
2022-08-29T08:58:16.189Z,99943.50
2022-08-29T09:00:50.729Z,99943.47
2022-08-29T09:03:40.126Z,99940.66
2022-08-29T09:06:16.025Z,99940.41
2022-08-29T09:08:51.324Z,99943.72
2022-08-29T09:11:33.702Z,99943.69
2022-08-29T09:14:06.355Z,99948.38
2022-08-29T09:16:41.077Z,99947.22
2022-08-29T09:19:11.339Z,99963.22
2022-08-29T09:21:47.055Z,99956.00
2022-08-29T09:24:21.687Z,99947.66
2022-08-29T09:26:48.515Z,99955.94
2022-08-29T09:29:17.302Z,99956.66
2022-08-29T09:31:44.064Z,99962.28
2022-08-29T09:34:13.039Z,99959.09
2022-08-29T09:36:52.413Z,99959.72
2022-08-29T09:39:25.949Z,99972.19
2022-08-29T09:42:12.815Z,99959.72
2022-08-29T09:44:41.063Z,99959.25
2022-08-29T09:47:12.972Z,99959.63
2022-08-29T09:49:42.422Z,99964.56
2022-08-29T09:52:24.808Z,99959.16
2022-08-29T09:54:51.419Z,99962.19
2022-08-29T09:57:29.234Z,99964.84
2022-08-29T10:00:13.677Z,99971.50
2022-08-29T10:02:43.782Z,99962.66
2022-08-29T10:05:30.632Z,99970.00
2022-08-29T10:07:59.062Z,99972.03
2022-08-29T10:10:28.700Z,99967.44
2022-08-29T10:13:01.053Z,99969.66
2022-08-29T10:15:49.900Z,99971.25
2022-08-29T10:18:24.667Z,99969.31
2022-08-29T10:21:25.114Z,99976.72
2022-08-29T10:23:59.991Z,99970.63
2022-08-29T10:26:39.845Z,99979.72
2022-08-29T10:29:29.622Z,99971.84
2022-08-29T10:32:36.925Z,99976.78
2022-08-29T10:35:39.340Z,99967.66
2022-08-29T10:38:23.657Z,99977.72
2022-08-29T10:41:20.624Z,99980.84
2022-08-29T10:44:05.711Z,99977.56
2022-08-29T10:46:47.972Z,99983.72
2022-08-29T10:49:32.576Z,99980.50
2022-08-29T10:52:15.308Z,99986.69
2022-08-29T10:55:00.319Z,99991.94
2022-08-29T10:57:55.428Z,99995.63
2022-08-29T11:00:25.053Z,99989.25
2022-08-29T11:03:11.799Z,99994.31
2022-08-29T11:05:47.021Z,99984.25
2022-08-29T11:08:21.094Z,99985.72
2022-08-29T11:10:50.631Z,99991.34
2022-08-29T11:13:36.896Z,99995.16
2022-08-29T11:16:17.025Z,99988.81
2022-08-29T11:18:51.709Z,99985.50
2022-08-29T11:21:27.771Z,99981.22
2022-08-29T11:23:58.997Z,99987.16
2022-08-29T11:26:44.776Z,99983.56
2022-08-29T11:29:33.132Z,99988.25
2022-08-29T11:32:12.982Z,99989.94
2022-08-29T11:35:07.638Z,99986.91
2022-08-29T11:37:59.504Z,99983.22
2022-08-29T11:41:26.469Z,99986.78
2022-08-29T11:43:30.889Z,99985.50
2022-08-29T11:46:05.083Z,99989.13
2022-08-29T11:48:38.037Z,99990.22
2022-08-29T11:51:40.145Z,99995.53
2022-08-29T11:54:25.324Z,99996.56
2022-08-29T11:57:01.077Z,99999.88
2022-08-29T11:59:49.748Z,99988.31
2022-08-29T12:02:22.898Z,100001.88
2022-08-29T12:05:00.853Z,99999.03
2022-08-29T12:07:42.458Z,100004.50
2022-08-29T12:10:24.644Z,99993.16
2022-08-29T12:12:53.351Z,99985.09
2022-08-29T12:15:32.607Z,99995.75
2022-08-29T12:18:03.715Z,99992.91
2022-08-29T12:20:30.507Z,99997.16
2022-08-29T12:23:07.683Z,100003.41
2022-08-29T12:25:44.888Z,99993.84
2022-08-29T12:28:17.564Z,100006.84
2022-08-29T12:30:49.337Z,100005.41
2022-08-29T12:33:46.882Z,100008.59
2022-08-29T12:36:41.177Z,99996.44
2022-08-29T12:39:57.729Z,100005.53
2022-08-29T12:42:46.669Z,100011.44
2022-08-29T12:45:18.336Z,100020.28
2022-08-29T12:47:48.013Z,100014.50
2022-08-29T12:50:18.679Z,100013.66
2022-08-29T12:53:00.044Z,100018.03
2022-08-29T12:55:39.864Z,100013.06
2022-08-29T12:58:07.902Z,100017.09
2022-08-29T13:00:35.094Z,100020.38
2022-08-29T13:03:09.569Z,100017.09
2022-08-29T13:05:42.237Z,100017.44
2022-08-29T13:08:28.616Z,100026.00
2022-08-29T13:11:00.680Z,100013.34
2022-08-29T13:13:29.135Z,100020.53
2022-08-29T13:16:01.767Z,100019.94
2022-08-29T13:18:29.724Z,100025.69
2022-08-29T13:21:21.539Z,100014.28
2022-08-29T13:24:00.444Z,100015.94
2022-08-29T13:26:29.227Z,100016.50
2022-08-29T13:29:13.286Z,100008.97
2022-08-29T13:31:40.138Z,100013.19
2022-08-29T13:34:06.633Z,100008.13
2022-08-29T13:36:49.290Z,100008.34
2022-08-29T13:39:25.322Z,99998.94
2022-08-29T13:41:58.599Z,100003.59
2022-08-29T13:44:30.983Z,100009.16
2022-08-29T13:47:01.397Z,100008.09
2022-08-29T13:49:33.546Z,100000.44
2022-08-29T13:52:00.931Z,99996.72
2022-08-29T13:54:33.141Z,99991.91
2022-08-29T13:57:03.257Z,100008.78
2022-08-29T13:59:35.944Z,100006.09
2022-08-29T14:02:11.210Z,99994.28
2022-08-29T14:04:40.881Z,100000.50
2022-08-29T14:07:18.061Z,99997.66
2022-08-29T14:09:45.759Z,100001.22
2022-08-29T14:12:14.234Z,100005.16
2022-08-29T14:14:42.368Z,100004.84
2022-08-29T14:17:09.583Z,100009.75
2022-08-29T14:19:36.792Z,100006.03
2022-08-29T14:22:03.909Z,100000.97
2022-08-29T14:24:31.796Z,100019.09
2022-08-29T14:27:01.585Z,100011.69
2022-08-29T14:29:32.965Z,100013.59
2022-08-29T14:32:03.123Z,100004.47
2022-08-29T14:34:30.830Z,100007.09
2022-08-29T14:37:00.676Z,100015.16
2022-08-29T14:39:27.723Z,100001.03
2022-08-29T14:41:54.837Z,100000.91
2022-08-29T14:44:24.549Z,100005.97
2022-08-29T14:46:51.068Z,99999.53
2022-08-29T14:49:18.545Z,100003.78
2022-08-29T14:51:45.614Z,100003.66
2022-08-29T14:54:13.201Z,100003.25
2022-08-29T14:56:49.584Z,100005.78
2022-08-29T14:59:19.017Z,100007.59
2022-08-29T15:01:49.932Z,100006.91
2022-08-29T15:04:27.466Z,100003.00
2022-08-29T15:07:06.154Z,99995.13
2022-08-29T15:09:33.648Z,100001.88
2022-08-29T15:12:00.184Z,99999.53
2022-08-29T15:14:26.836Z,100004.59
2022-08-29T15:16:53.677Z,100004.25
2022-08-29T15:22:08.546Z,100008.78
2022-08-29T15:24:35.107Z,100005.03
2022-08-29T15:27:02.231Z,99996.44
2022-08-29T15:29:29.222Z,99990.09
2022-08-29T15:31:58.779Z,99997.78
2022-08-29T15:34:26.477Z,99988.19
2022-08-29T15:36:54.442Z,99992.94
2022-08-29T15:39:21.743Z,99990.66
2022-08-29T15:41:48.285Z,99989.84
2022-08-29T15:44:15.296Z,99988.91
2022-08-29T15:46:50.864Z,99990.56
2022-08-29T15:49:18.574Z,99989.25
2022-08-29T15:51:45.219Z,99980.28
2022-08-29T15:54:12.790Z,99983.00
2022-08-29T15:56:39.388Z,99988.91
2022-08-29T15:59:07.972Z,99991.84
2022-08-29T16:01:38.821Z,99987.81
2022-08-29T16:04:09.350Z,99994.53
2022-08-29T16:06:36.458Z,99992.03
2022-08-29T16:09:03.993Z,99995.38
2022-08-29T16:11:41.877Z,99989.94
2022-08-29T16:16:58.370Z,99983.34
2022-08-29T16:19:24.929Z,99993.97
2022-08-29T16:21:51.549Z,99993.97
2022-08-29T16:24:18.530Z,99988.44
2022-08-29T16:26:45.904Z,99982.06
2022-08-29T16:29:13.017Z,99976.13
2022-08-29T16:31:40.033Z,99984.13
2022-08-29T16:34:06.587Z,99985.56
2022-08-29T16:36:33.173Z,99987.88
2022-08-29T16:38:59.801Z,99982.72
2022-08-29T16:41:27.912Z,99992.94
2022-08-29T16:43:55.151Z,99980.09
2022-08-29T16:46:25.700Z,99979.38
2022-08-29T16:48:52.804Z,99984.13
2022-08-29T16:51:22.219Z,99986.63
2022-08-29T16:53:48.888Z,99983.78
2022-08-29T16:56:16.589Z,99990.13
2022-08-29T16:59:01.782Z,99983.91
2022-08-29T17:01:49.311Z,99992.69
2022-08-29T17:04:18.851Z,99986.13
2022-08-29T17:06:48.872Z,99992.88
2022-08-29T17:09:20.092Z,100000.84
2022-08-29T17:11:47.527Z,99990.03
2022-08-29T17:14:14.941Z,99992.72
2022-08-29T17:16:43.415Z,99996.00
2022-08-29T17:19:09.956Z,99993.97
2022-08-29T17:21:36.568Z,99997.41
2022-08-29T17:24:06.798Z,99991.81
2022-08-29T17:26:35.035Z,99993.81
2022-08-29T17:29:01.918Z,99993.22
2022-08-29T17:31:30.019Z,99986.16
2022-08-29T17:34:05.329Z,99990.63
2022-08-29T17:36:33.391Z,99989.84
2022-08-29T17:38:59.960Z,99995.44
2022-08-29T17:41:27.558Z,99994.88
2022-08-29T17:43:57.427Z,99996.16
2022-08-29T17:46:24.305Z,99993.66
2022-08-29T17:48:50.892Z,99994.94
2022-08-29T17:51:17.639Z,99993.31
2022-08-29T17:53:46.398Z,99991.28
2022-08-29T17:56:21.243Z,99991.94
2022-08-29T17:58:48.245Z,99994.91
2022-08-29T18:01:16.921Z,99997.78
2022-08-29T18:03:44.760Z,99998.06
2022-08-29T18:06:14.483Z,100002.19
2022-08-29T18:08:42.169Z,100000.56
2022-08-29T18:11:15.680Z,99999.72
2022-08-29T18:13:42.332Z,100001.78
2022-08-29T18:16:10.539Z,100008.47
2022-08-29T18:18:37.608Z,100002.81
2022-08-29T18:21:04.485Z,100010.09
2022-08-29T18:23:31.218Z,100000.53
2022-08-29T18:25:59.387Z,100005.94
2022-08-29T18:28:26.053Z,100016.94
2022-08-29T18:30:53.123Z,100021.50
2022-08-29T18:33:20.119Z,100023.56
2022-08-29T18:35:47.632Z,100024.59
2022-08-29T18:38:15.909Z,100029.34
2022-08-29T18:40:42.584Z,100019.81
2022-08-29T18:43:09.862Z,100028.75
2022-08-29T18:45:37.596Z,100026.84
2022-08-29T18:48:04.814Z,100030.41
2022-08-29T18:50:34.263Z,100028.28
2022-08-29T18:53:21.925Z,100024.16
2022-08-29T18:55:50.485Z,100036.53
2022-08-29T18:58:21.223Z,100031.16
2022-08-29T19:00:48.448Z,100030.31
2022-08-29T19:03:15.083Z,100037.75
2022-08-29T19:05:46.181Z,100035.03
2022-08-29T19:08:13.583Z,100041.06
2022-08-29T19:10:40.191Z,100039.38
2022-08-29T19:13:09.672Z,100035.41
2022-08-29T19:15:41.290Z,100041.81
2022-08-29T19:18:09.885Z,100045.50
2022-08-29T19:20:55.179Z,100033.03
2022-08-29T19:23:22.555Z,100039.03
2022-08-29T19:25:49.266Z,100039.00
2022-08-29T19:28:17.079Z,100043.31
2022-08-29T19:30:43.997Z,100042.47
2022-08-29T19:33:11.068Z,100042.44
2022-08-29T19:35:38.846Z,100048.66
2022-08-29T19:38:06.573Z,100041.56
2022-08-29T19:40:38.947Z,100044.47
2022-08-29T19:43:13.778Z,100044.72
2022-08-29T19:45:42.556Z,100048.78
2022-08-29T19:48:14.825Z,100047.22
2022-08-29T19:50:43.417Z,100050.31
2022-08-29T19:53:16.990Z,100046.78
2022-08-29T19:55:53.546Z,100035.81
2022-08-29T19:58:21.100Z,100037.63
2022-08-29T20:00:48.033Z,100032.97
2022-08-29T20:03:15.332Z,100045.53
2022-08-29T20:05:42.026Z,100042.44
2022-08-29T20:08:09.265Z,100051.50
2022-08-29T20:10:36.711Z,100044.00
2022-08-29T20:13:04.094Z,100055.59
2022-08-29T20:15:31.025Z,100051.88
2022-08-29T20:18:00.333Z,100049.81
2022-08-29T20:20:36.580Z,100056.28
2022-08-29T20:23:04.976Z,100056.41
2022-08-29T20:25:32.731Z,100055.53
2022-08-29T20:27:59.624Z,100053.63
2022-08-29T20:30:28.347Z,100062.31
2022-08-29T20:32:54.929Z,100060.16
2022-08-29T20:35:40.768Z,100069.69
2022-08-29T20:38:08.109Z,100073.19
2022-08-29T20:40:46.938Z,100069.16
2022-08-29T20:43:14.812Z,100071.41
2022-08-29T20:45:42.408Z,100076.59
2022-08-29T20:48:10.238Z,100073.44
2022-08-29T20:50:36.975Z,100076.31
2022-08-29T20:53:05.003Z,100081.25
2022-08-29T20:55:31.677Z,100075.41
2022-08-29T20:57:58.659Z,100073.38
2022-08-29T21:00:25.179Z,100072.03
2022-08-29T21:03:10.543Z,100082.75
2022-08-29T21:05:47.040Z,100085.44
2022-08-29T21:08:19.007Z,100086.66
2022-08-29T21:10:46.385Z,100095.53
2022-08-29T21:13:13.957Z,100099.69
2022-08-29T21:15:41.611Z,100096.75
2022-08-29T21:18:09.126Z,100112.78
2022-08-29T21:20:37.264Z,100100.81
2022-08-29T21:23:12.892Z,100098.31
2022-08-29T21:25:44.570Z,100097.03
2022-08-29T21:28:12.012Z,100098.06
2022-08-29T21:30:45.490Z,100103.03
2022-08-29T21:33:12.426Z,100091.31
2022-08-29T21:35:40.506Z,100101.69
2022-08-29T21:38:08.192Z,100093.16
2022-08-29T21:40:35.326Z,100101.13
2022-08-29T21:43:10.635Z,100100.38
2022-08-29T21:45:39.840Z,100093.53
2022-08-29T21:48:06.749Z,100105.66
2022-08-29T21:50:33.532Z,100102.03
2022-08-29T21:53:00.067Z,100097.97
2022-08-29T21:55:26.721Z,100103.34
2022-08-29T21:57:53.678Z,100109.19
2022-08-29T22:00:22.633Z,100107.16
2022-08-29T22:02:49.150Z,100105.28
2022-08-29T22:05:15.805Z,100102.41
2022-08-29T22:07:42.963Z,100112.88
2022-08-29T22:10:17.689Z,100119.34
2022-08-29T22:12:44.489Z,100116.00
2022-08-29T22:15:32.032Z,100120.63
2022-08-29T22:17:59.225Z,100124.97
2022-08-29T22:20:25.824Z,100130.31
2022-08-29T22:22:52.800Z,100127.09
2022-08-29T22:25:19.789Z,100124.56
2022-08-29T22:27:46.559Z,100121.91
2022-08-29T22:30:13.656Z,100123.75
2022-08-29T22:32:40.966Z,100120.69
2022-08-29T22:35:09.359Z,100124.75
2022-08-29T22:37:37.013Z,100125.06
2022-08-29T22:40:13.473Z,100124.41
2022-08-29T22:42:41.148Z,100123.47
2022-08-29T22:45:08.913Z,100125.66
2022-08-29T22:47:37.168Z,100127.25
2022-08-29T22:50:06.601Z,100128.06
2022-08-29T22:52:33.564Z,100121.22
2022-08-29T22:55:00.296Z,100121.78
2022-08-29T22:57:27.046Z,100121.94
2022-08-29T22:59:53.510Z,100113.91
2022-08-29T23:02:21.593Z,100113.72
2022-08-29T23:04:49.603Z,100111.09
2022-08-29T23:07:16.436Z,100114.31
2022-08-29T23:09:43.872Z,100119.34
2022-08-29T23:12:12.363Z,100116.56
2022-08-29T23:14:40.645Z,100116.44
2022-08-29T23:17:08.444Z,100118.16
2022-08-29T23:19:35.638Z,100109.66
2022-08-29T23:22:02.494Z,100107.44
2022-08-29T23:24:29.942Z,100108.66
2022-08-29T23:26:57.213Z,100112.81
2022-08-29T23:29:24.036Z,100121.97
2022-08-29T23:31:50.666Z,100114.13
2022-08-29T23:34:17.767Z,100115.59
2022-08-29T23:36:44.478Z,100115.13
2022-08-29T23:39:11.166Z,100113.63
2022-08-29T23:41:37.805Z,100111.72
2022-08-29T23:44:04.525Z,100109.84
2022-08-29T23:46:31.129Z,100109.50
2022-08-29T23:48:59.349Z,100105.88
2022-08-29T23:51:25.900Z,100107.53
2022-08-29T23:53:52.731Z,100106.41
2022-08-29T23:56:21.221Z,100107.53
2022-08-29T23:58:48.126Z,100111.94
